Time;durP1;ratioP1;P1;durP2;ratioP2;P2;SDS_P1;SDS_P2;PMS_P1;PMS_P2;Temp;Humidity;BMP_temperature;BMP_pressure;BME280_temperature;BME280_humidity;BME280_pressure;Samples;Min_cycle;Max_cycle;Signal;HPM_P1;HPM_P2
2022/12/19 00:02:07;;;;;;;63.55;33.47;;;2.20;66.30;;;;;;5031793;28;20395;-71
2022/12/19 00:04:33;;;;;;;59.73;32.43;;;2.20;65.40;;;;;;5035644;28;20456;-71
2022/12/19 00:06:59;;;;;;;65.50;34.45;;;2.20;65.50;;;;;;5036161;28;20741;-71
2022/12/19 00:09:26;;;;;;;67.90;32.75;;;2.20;66.60;;;;;;5033031;28;20394;-72
2022/12/19 00:11:52;;;;;;;62.40;32.63;;;2.20;67.40;;;;;;5030504;28;20411;-72
2022/12/19 00:14:18;;;;;;;64.05;32.40;;;2.20;66.30;;;;;;5029616;28;20744;-71
2022/12/19 00:16:44;;;;;;;63.45;32.67;;;2.20;66.10;;;;;;5032096;28;20521;-72
2022/12/19 00:19:10;;;;;;;63.17;33.50;;;2.30;65.90;;;;;;5044162;28;20883;-72
2022/12/19 00:21:36;;;;;;;65.15;34.38;;;2.30;66.20;;;;;;5040620;28;20871;-71
2022/12/19 00:24:03;;;;;;;64.20;32.78;;;2.30;67.20;;;;;;5030562;28;20387;-71
2022/12/19 00:26:31;;;;;;;63.28;32.90;;;2.30;66.10;;;;;;5030295;28;20494;-72
2022/12/19 00:29:00;;;;;;;65.20;34.20;;;2.30;68.00;;;;;;5031029;28;20387;-73
2022/12/19 00:31:27;;;;;;;64.80;33.27;;;2.30;69.10;;;;;;5031459;28;20468;-73
2022/12/19 00:33:53;;;;;;;63.78;32.47;;;2.40;68.70;;;;;;5031161;28;20383;-72
2022/12/19 00:36:21;;;;;;;63.60;32.20;;;2.40;68.40;;;;;;5030471;28;20387;-71
2022/12/19 00:38:47;;;;;;;64.55;33.55;;;2.40;67.10;;;;;;5029019;28;20379;-73
2022/12/19 00:41:15;;;;;;;65.03;32.22;;;2.40;69.10;;;;;;5030675;28;20387;-73
2022/12/19 00:43:42;;;;;;;62.63;33.05;;;2.50;68.50;;;;;;5039306;28;20402;-72
2022/12/19 00:46:11;;;;;;;60.20;32.60;;;2.50;68.20;;;;;;5041125;28;20423;-71
2022/12/19 00:48:37;;;;;;;65.60;34.25;;;2.50;68.70;;;;;;5034453;28;20482;-71
2022/12/19 00:51:05;;;;;;;61.47;32.47;;;2.50;70.00;;;;;;5031596;28;20430;-72
2022/12/19 00:53:30;;;;;;;58.17;31.67;;;2.50;68.40;;;;;;5028764;28;20407;-71
2022/12/19 00:56:00;;;;;;;59.77;31.67;;;2.60;67.70;;;;;;5031858;28;20963;-72
2022/12/19 00:58:26;;;;;;;60.03;31.50;;;2.60;67.90;;;;;;5034003;28;20803;-72
2022/12/19 01:00:51;;;;;;;62.20;32.67;;;2.60;68.60;;;;;;5032278;28;20410;-73
2022/12/19 01:03:17;;;;;;;58.50;30.93;;;2.60;69.00;;;;;;5034208;28;20482;-72
2022/12/19 01:05:42;;;;;;;59.00;32.20;;;2.70;70.60;;;;;;5034711;28;20379;-72
2022/12/19 01:08:08;;;;;;;64.95;32.95;;;2.70;71.70;;;;;;5034352;28;20390;-72
2022/12/19 01:10:33;;;;;;;63.58;32.42;;;2.70;73.50;;;;;;5034184;28;20391;-73
2022/12/19 01:12:59;;;;;;;69.05;35.05;;;2.60;75.60;;;;;;5033036;28;20597;-72
2022/12/19 01:15:24;;;;;;;66.60;33.17;;;2.60;77.60;;;;;;5033667;28;20473;-72
2022/12/19 01:17:50;;;;;;;62.40;34.23;;;2.60;74.10;;;;;;5033975;28;20371;-73
2022/12/19 01:20:19;;;;;;;59.20;31.43;;;2.60;76.40;;;;;;5033999;28;20394;-73
2022/12/19 01:22:46;;;;;;;61.88;33.88;;;2.70;76.40;;;;;;5033149;28;20741;-72
2022/12/19 01:25:13;;;;;;;60.65;32.03;;;2.70;75.60;;;;;;5033347;28;20438;-71
2022/12/19 01:27:39;;;;;;;61.63;33.28;;;2.70;74.40;;;;;;5033311;28;20427;-71
2022/12/19 01:30:06;;;;;;;61.33;32.30;;;2.70;74.40;;;;;;5033456;28;20399;-72
2022/12/19 01:32:34;;;;;;;65.93;33.35;;;2.70;75.10;;;;;;5032971;28;20403;-71
2022/12/19 01:35:00;;;;;;;61.97;32.75;;;2.80;76.00;;;;;;5032051;28;20383;-72
2022/12/19 01:37:26;;;;;;;62.03;32.30;;;2.80;75.40;;;;;;5034070;28;20387;-72
2022/12/19 01:39:51;;;;;;;62.70;32.53;;;2.80;73.40;;;;;;5034013;28;20383;-71
2022/12/19 01:42:19;;;;;;;67.60;34.07;;;2.90;74.50;;;;;;5032870;28;20393;-72
2022/12/19 01:45:21;;;;;;;61.60;34.25;;;2.90;75.40;;;;;;5033815;28;20429;-72
2022/12/19 01:47:53;;;;;;;64.15;33.53;;;2.80;76.30;;;;;;5033852;28;20403;-73
2022/12/19 01:50:40;;;;;;;58.10;32.17;;;2.90;76.10;;;;;;5035944;28;20501;-73
2022/12/19 01:53:08;;;;;;;60.30;30.97;;;2.90;76.40;;;;;;5033894;28;20946;-73
2022/12/19 01:55:35;;;;;;;60.53;31.90;;;2.90;74.80;;;;;;5035577;28;20401;-72
2022/12/19 01:58:01;;;;;;;60.83;31.70;;;2.90;75.80;;;;;;5034785;28;20456;-71
2022/12/19 02:00:26;;;;;;;65.55;33.45;;;3.00;76.10;;;;;;5034174;28;20474;-73
2022/12/19 02:02:59;;;;;;;63.40;33.00;;;3.00;78.20;;;;;;5032944;28;20462;-73
2022/12/19 02:05:24;;;;;;;65.82;32.35;;;3.00;78.10;;;;;;5033348;28;20461;-72
2022/12/19 02:07:51;;;;;;;63.17;32.10;;;3.00;78.10;;;;;;5033304;28;20466;-72
2022/12/19 02:10:16;;;;;;;60.17;31.17;;;3.00;78.10;;;;;;5033047;28;20418;-71
2022/12/19 02:12:44;;;;;;;60.93;32.30;;;3.10;78.20;;;;;;5032267;28;20522;-71
2022/12/19 02:15:11;;;;;;;61.60;31.80;;;3.20;76.10;;;;;;5031241;28;20628;-71
2022/12/19 02:18:00;;;;;;;58.35;31.67;;;3.20;75.50;;;;;;5032425;28;20390;-71
2022/12/19 02:20:56;;;;;;;61.17;30.92;;;3.20;75.90;;;;;;5032501;28;20384;-71
2022/12/19 02:23:52;;;;;;;61.25;30.50;;;3.30;76.60;;;;;;5031784;28;20897;-71
2022/12/19 02:26:36;;;;;;;59.22;31.90;;;3.30;76.60;;;;;;5033423;28;20395;-71
2022/12/19 02:29:07;;;;;;;60.85;31.23;;;3.30;76.00;;;;;;5033761;28;20383;-71
2022/12/19 02:31:35;;;;;;;58.72;29.95;;;3.30;76.40;;;;;;5032855;28;20378;-72
2022/12/19 02:34:22;;;;;;;56.00;29.70;;;3.30;76.90;;;;;;5033007;28;20415;-71
2022/12/19 02:37:02;;;;;;;60.03;30.73;;;3.40;74.40;;;;;;5032575;28;20394;-72
2022/12/19 02:39:54;;;;;;;58.72;30.60;;;3.50;74.60;;;;;;5030814;28;20876;-71
2022/12/19 02:42:28;;;;;;;56.90;30.10;;;3.50;74.10;;;;;;5030894;28;20419;-70
2022/12/19 02:44:54;;;;;;;57.72;30.67;;;3.50;74.20;;;;;;5031852;28;20799;-71
2022/12/19 02:47:20;;;;;;;56.60;29.80;;;3.60;74.40;;;;;;5047618;22;20407;-76
2022/12/19 02:49:46;;;;;;;57.97;30.15;;;3.60;73.00;;;;;;5052279;28;20810;-76
2022/12/19 02:52:32;;;;;;;55.95;31.00;;;3.60;71.90;;;;;;5051638;28;20441;-76
2022/12/19 02:55:08;;;;;;;55.95;30.17;;;3.60;71.80;;;;;;5052183;28;20443;-75
2022/12/19 02:57:41;;;;;;;53.67;29.67;;;3.50;72.40;;;;;;5052862;28;20431;-77
2022/12/19 03:00:08;;;;;;;60.13;31.38;;;3.70;73.20;;;;;;5051268;28;20480;-76
2022/12/19 03:03:06;;;;;;;57.10;31.10;;;3.70;72.40;;;;;;5052052;28;20397;-77
2022/12/19 03:05:42;;;;;;;52.28;29.02;;;3.60;70.30;;;;;;5050781;28;20397;-76
2022/12/19 03:08:36;;;;;;;54.15;28.60;;;3.70;68.90;;;;;;5051925;28;20439;-75
2022/12/19 03:11:06;;;;;;;54.17;29.23;;;3.70;68.20;;;;;;5049977;28;20392;-75
2022/12/19 03:13:44;;;;;;;51.13;28.65;;;3.70;68.40;;;;;;5051776;28;20405;-76
2022/12/19 03:16:10;;;;;;;52.35;28.20;;;3.80;67.40;;;;;;5052099;28;20435;-76
2022/12/19 03:18:36;;;;;;;52.80;27.98;;;3.80;68.70;;;;;;5049916;28;20397;-76
2022/12/19 03:21:24;;;;;;;56.70;30.00;;;3.80;68.50;;;;;;5051819;28;20388;-77
2022/12/19 03:23:51;;;;;;;60.85;29.70;;;3.80;70.70;;;;;;5052063;28;20381;-75
2022/12/19 03:26:18;;;;;;;50.50;28.13;;;3.80;68.90;;;;;;5051904;28;20394;-76
2022/12/19 03:29:08;;;;;;;49.57;28.50;;;3.80;68.00;;;;;;5051711;28;20443;-76
2022/12/19 03:31:36;;;;;;;56.08;29.30;;;3.90;69.00;;;;;;5050840;28;20841;-77
2022/12/19 03:34:09;;;;;;;49.30;28.30;;;3.90;69.30;;;;;;5049936;28;20455;-75
2022/12/19 03:36:47;;;;;;;57.63;28.88;;;3.90;69.70;;;;;;5051597;28;20390;-76
2022/12/19 03:39:15;;;;;;;54.30;28.73;;;3.90;68.80;;;;;;5051690;28;20417;-76
2022/12/19 03:44:34;;;;;;;53.50;29.85;;;3.80;68.70;;;;;;5052161;28;20380;-75
2022/12/19 03:47:16;;;;;;;54.80;29.60;;;3.90;68.30;;;;;;5051104;28;20384;-75
2022/12/19 03:49:42;;;;;;;54.53;29.05;;;3.90;68.50;;;;;;5051010;28;20381;-76
2022/12/19 03:52:23;;;;;;;53.90;29.23;;;4.00;67.50;;;;;;5049734;28;20936;-77
2022/12/19 03:55:09;;;;;;;54.23;28.93;;;4.00;67.40;;;;;;5051630;28;20400;-76
2022/12/19 03:57:41;;;;;;;49.85;28.50;;;4.00;66.80;;;;;;5051906;28;20377;-75
2022/12/19 04:00:12;;;;;;;53.03;29.20;;;4.00;68.30;;;;;;5050326;28;20385;-77
2022/12/19 04:02:42;;;;;;;53.33;29.93;;;4.00;69.70;;;;;;5050093;28;20377;-77
2022/12/19 04:05:11;;;;;;;58.08;30.40;;;4.00;72.30;;;;;;5051755;28;20472;-75
2022/12/19 04:07:38;;;;;;;53.97;28.98;;;4.00;73.80;;;;;;5050766;28;20453;-74
2022/12/19 04:10:11;;;;;;;55.63;30.05;;;4.00;77.20;;;;;;5060402;28;20754;-76
2022/12/19 04:12:41;;;;;;;58.25;32.30;;;3.90;78.70;;;;;;5056739;28;20821;-77
2022/12/19 04:15:17;;;;;;;58.28;31.17;;;3.90;80.90;;;;;;5061525;28;20878;-76
2022/12/19 04:17:54;;;;;;;58.95;30.85;;;3.90;83.20;;;;;;5051998;28;20389;-75
2022/12/19 04:20:23;;;;;;;63.05;31.60;;;3.90;84.80;;;;;;5051202;28;20439;-76
2022/12/19 04:22:56;;;;;;;61.13;31.13;;;3.90;85.50;;;;;;5051513;28;20386;-77
2022/12/19 04:25:28;;;;;;;59.50;30.20;;;3.90;85.70;;;;;;5051486;28;20377;-77
2022/12/19 04:28:00;;;;;;;58.33;31.77;;;3.90;86.20;;;;;;5051463;28;20377;-77
2022/12/19 04:30:25;;;;;;;62.42;32.80;;;3.90;87.50;;;;;;5052138;28;20377;-76
2022/12/19 04:32:51;;;;;;;59.47;32.10;;;3.90;90.00;;;;;;5054814;28;20397;-76
2022/12/19 04:35:17;;;;;;;61.43;32.30;;;3.90;90.40;;;;;;5054733;28;20874;-77
2022/12/19 04:37:43;;;;;;;60.90;31.83;;;3.90;91.10;;;;;;5054648;28;20460;-75
2022/12/19 04:40:09;;;;;;;61.90;31.70;;;3.90;92.00;;;;;;5054514;28;20407;-75
2022/12/19 04:42:35;;;;;;;59.70;32.00;;;3.90;91.50;;;;;;5054214;28;20408;-76
2022/12/19 04:45:01;;;;;;;66.47;34.13;;;3.90;91.30;;;;;;5054248;28;20393;-76
2022/12/19 04:47:26;;;;;;;63.27;31.33;;;3.90;93.10;;;;;;5054368;28;20889;-76
2022/12/19 04:49:52;;;;;;;62.97;31.70;;;3.90;91.20;;;;;;5054611;28;20423;-77
2022/12/19 04:52:17;;;;;;;63.60;32.83;;;4.00;92.80;;;;;;5054340;28;20432;-77
2022/12/19 04:54:43;;;;;;;60.65;31.98;;;4.00;93.50;;;;;;5054990;28;20480;-75
2022/12/19 04:57:09;;;;;;;62.33;32.42;;;4.00;94.10;;;;;;5054971;28;20381;-75
2022/12/19 04:59:34;;;;;;;63.33;32.40;;;4.00;93.80;;;;;;5055095;28;20417;-77
2022/12/19 05:02:00;;;;;;;66.32;31.70;;;4.00;93.80;;;;;;5054661;28;20469;-77
2022/12/19 05:04:25;;;;;;;62.75;31.90;;;4.00;94.20;;;;;;5054900;28;20455;-76
2022/12/19 05:06:51;;;;;;;65.68;32.70;;;4.00;94.20;;;;;;5055770;28;20381;-76
2022/12/19 05:09:16;;;;;;;60.70;31.70;;;4.00;95.40;;;;;;5054748;28;20398;-76
2022/12/19 05:11:42;;;;;;;63.77;32.67;;;4.10;96.80;;;;;;5053773;28;20392;-76
2022/12/19 05:14:08;;;;;;;65.30;33.67;;;4.00;96.50;;;;;;5054360;28;20389;-76
2022/12/19 05:16:34;;;;;;;65.00;33.97;;;4.00;98.40;;;;;;5053973;28;20836;-76
2022/12/19 05:19:00;;;;;;;62.90;33.42;;;4.00;99.90;;;;;;5053901;28;20507;-76
2022/12/19 05:21:26;;;;;;;65.18;34.63;;;4.10;99.90;;;;;;5054622;28;20421;-76
2022/12/19 05:23:52;;;;;;;69.32;35.63;;;4.00;99.90;;;;;;5053404;28;20385;-76
2022/12/19 05:26:18;;;;;;;71.67;35.30;;;4.10;99.90;;;;;;5055666;28;20621;-77
2022/12/19 05:28:44;;;;;;;64.30;35.00;;;4.00;99.90;;;;;;5055110;28;20389;-76
2022/12/19 05:31:12;;;;;;;68.67;35.10;;;4.10;99.90;;;;;;5052823;28;20389;-76
2022/12/19 05:33:39;;;;;;;70.82;35.60;;;4.00;99.90;;;;;;5054056;28;20861;-76
2022/12/19 05:36:07;;;;;;;75.20;36.47;;;4.00;99.90;;;;;;5054386;28;20476;-76
2022/12/19 05:38:33;;;;;;;72.78;37.03;;;4.00;99.90;;;;;;5054597;28;20388;-75
2022/12/19 05:40:58;;;;;;;72.63;36.60;;;4.00;99.90;;;;;;5055512;28;20377;-75
2022/12/19 05:43:25;;;;;;;66.57;35.03;;;4.10;99.90;;;;;;5058318;28;20385;-76
2022/12/19 05:45:50;;;;;;;64.63;33.40;;;4.10;99.90;;;;;;5055907;28;20397;-76
2022/12/19 05:48:16;;;;;;;66.07;33.58;;;4.20;99.90;;;;;;5055041;28;20393;-76
2022/12/19 05:50:48;;;;;;;72.43;35.67;;;4.20;99.90;;;;;;5053773;28;20777;-76
2022/12/19 05:53:13;;;;;;;74.22;35.45;;;4.20;99.90;;;;;;5052474;28;20408;-76
2022/12/19 05:55:39;;;;;;;74.17;35.10;;;4.30;99.90;;;;;;5052906;28;20397;-76
2022/12/19 05:58:04;;;;;;;65.23;34.03;;;4.30;99.90;;;;;;5054810;28;20381;-77
2022/12/19 06:00:30;;;;;;;74.20;35.40;;;4.30;99.90;;;;;;5064096;28;20453;-79
2022/12/19 06:02:56;;;;;;;65.90;33.30;;;4.30;99.90;;;;;;5059894;28;20896;-76
2022/12/19 06:05:21;;;;;;;64.95;34.58;;;4.30;99.90;;;;;;5068319;28;20377;-77
2022/12/19 06:07:47;;;;;;;68.90;34.95;;;4.30;99.90;;;;;;5074339;28;20385;-77
2022/12/19 06:10:12;;;;;;;71.13;33.80;;;4.30;99.90;;;;;;5074476;28;20400;-76
2022/12/19 06:12:38;;;;;;;70.95;34.85;;;4.30;99.90;;;;;;5071009;28;20421;-77
2022/12/19 06:15:04;;;;;;;70.57;34.20;;;4.30;99.90;;;;;;5055205;28;20565;-77
2022/12/19 06:17:29;;;;;;;68.03;35.38;;;4.40;99.90;;;;;;5055263;28;20465;-77
2022/12/19 06:19:55;;;;;;;67.47;35.03;;;4.40;99.90;;;;;;5053015;28;20480;-76
2022/12/19 06:22:20;;;;;;;66.33;34.67;;;4.30;99.90;;;;;;5054279;28;20763;-77
2022/12/19 06:24:46;;;;;;;68.73;33.60;;;4.40;99.90;;;;;;5053512;28;20825;-77
2022/12/19 06:27:11;;;;;;;69.47;34.70;;;4.50;99.90;;;;;;5054808;28;20393;-78
2022/12/19 06:29:37;;;;;;;67.30;34.43;;;4.50;99.90;;;;;;5052888;28;20404;-76
2022/12/19 06:32:03;;;;;;;69.47;34.97;;;4.50;99.90;;;;;;5055443;28;20404;-77
2022/12/19 06:34:28;;;;;;;64.07;32.97;;;4.50;99.90;;;;;;5054369;28;20929;-76
2022/12/19 06:36:54;;;;;;;67.00;33.73;;;4.60;99.90;;;;;;5052792;28;20438;-76
2022/12/19 06:39:20;;;;;;;67.07;32.23;;;4.60;99.90;;;;;;5052334;28;20381;-76
2022/12/19 06:44:31;;;;;;;62.30;31.20;;;4.70;99.90;;;;;;5052765;28;20530;-77
2022/12/19 06:46:56;;;;;;;61.78;32.40;;;4.70;99.90;;;;;;5052771;28;20699;-77
2022/12/19 06:49:22;;;;;;;62.90;31.80;;;4.90;99.90;;;;;;5050645;28;20446;-77
2022/12/19 06:51:47;;;;;;;61.37;31.27;;;4.90;99.90;;;;;;5052054;28;20396;-76
2022/12/19 06:54:13;;;;;;;50.97;29.67;;;4.90;99.90;;;;;;5051229;28;20389;-77
2022/12/19 06:56:41;;;;;;;61.55;32.03;;;5.00;99.90;;;;;;5052248;28;20378;-77
2022/12/19 06:59:13;;;;;;;56.40;30.38;;;5.00;99.90;;;;;;5051186;28;20458;-77
2022/12/19 07:02:17;;;;;;;51.33;29.10;;;5.00;99.90;;;;;;5050730;28;20378;-76
2022/12/19 07:04:49;;;;;;;58.05;30.08;;;5.00;99.90;;;;;;4971397;28;20384;-77
2022/12/19 07:07:15;;;;;;;60.15;30.77;;;5.10;99.90;;;;;;4970783;28;20944;-77
2022/12/19 07:09:40;;;;;;;55.42;29.58;;;5.10;99.90;;;;;;5011949;28;20385;-76
2022/12/19 07:12:06;;;;;;;49.17;28.80;;;5.10;99.90;;;;;;5052801;28;20765;-76
2022/12/19 07:14:32;;;;;;;51.47;29.13;;;5.10;99.90;;;;;;5052115;28;20388;-77
2022/12/19 07:17:00;;;;;;;60.33;30.23;;;5.20;99.90;;;;;;5053179;28;20412;-77
2022/12/19 07:19:28;;;;;;;52.60;29.65;;;5.20;99.90;;;;;;5055678;28;20379;-75
2022/12/19 07:21:55;;;;;;;50.03;28.17;;;5.30;99.90;;;;;;5060242;28;20762;-77
2022/12/19 07:24:21;;;;;;;52.47;28.60;;;5.30;99.90;;;;;;5059897;28;20382;-76
2022/12/19 07:26:47;;;;;;;47.58;27.27;;;5.30;99.90;;;;;;5059405;28;20400;-76
2022/12/19 07:29:13;;;;;;;50.50;28.23;;;5.40;99.90;;;;;;5061111;28;20473;-76
2022/12/19 07:31:38;;;;;;;53.22;29.67;;;5.40;99.90;;;;;;5057617;28;20378;-76
2022/12/19 07:34:04;;;;;;;53.00;28.97;;;5.40;99.90;;;;;;5056186;28;20900;-76
2022/12/19 07:36:30;;;;;;;50.63;28.70;;;5.30;99.90;;;;;;5054725;28;20385;-76
2022/12/19 07:38:55;;;;;;;52.33;28.65;;;5.40;99.90;;;;;;5054222;28;20390;-75
2022/12/19 07:41:21;;;;;;;51.85;27.60;;;5.50;99.90;;;;;;5053971;28;20403;-77
2022/12/19 07:43:46;;;;;;;52.05;28.15;;;5.50;99.90;;;;;;5053671;28;20389;-75
2022/12/19 07:46:13;;;;;;;50.63;28.85;;;5.50;99.90;;;;;;5053789;28;20378;-77
2022/12/19 07:48:38;;;;;;;48.27;27.40;;;5.50;99.90;;;;;;5052977;28;20777;-77
2022/12/19 07:51:04;;;;;;;50.00;27.67;;;5.60;99.90;;;;;;5051648;28;20416;-76
2022/12/19 07:53:30;;;;;;;50.17;27.77;;;5.60;99.90;;;;;;5050858;28;20410;-77
2022/12/19 07:55:56;;;;;;;49.28;26.50;;;5.70;99.90;;;;;;5053529;28;20385;-76
2022/12/19 07:58:22;;;;;;;49.42;27.55;;;5.70;99.90;;;;;;5053713;28;20382;-76
2022/12/19 08:00:55;;;;;;;46.77;26.60;;;5.70;99.90;;;;;;5054116;28;20392;-76
2022/12/19 08:03:22;;;;;;;47.67;27.58;;;5.70;99.90;;;;;;5053146;28;20382;-76
2022/12/19 08:05:47;;;;;;;47.45;27.40;;;5.70;99.90;;;;;;5055728;28;20386;-77
2022/12/19 08:08:13;;;;;;;47.57;27.13;;;5.70;99.90;;;;;;5060579;28;20476;-77
2022/12/19 08:10:40;;;;;;;44.37;25.40;;;5.80;99.90;;;;;;5058716;28;20526;-76
2022/12/19 08:13:06;;;;;;;47.43;26.77;;;5.80;99.90;;;;;;5063495;28;20484;-77
2022/12/19 08:15:31;;;;;;;49.22;27.40;;;5.80;99.90;;;;;;5061169;28;20377;-76
2022/12/19 08:17:57;;;;;;;49.20;27.60;;;5.80;99.90;;;;;;5051175;28;20781;-77
2022/12/19 08:20:23;;;;;;;50.30;27.40;;;5.70;99.90;;;;;;5052226;28;20381;-77
2022/12/19 08:22:48;;;;;;;48.63;27.13;;;5.80;99.90;;;;;;5051779;28;20425;-76
2022/12/19 08:25:14;;;;;;;47.30;27.20;;;5.80;99.90;;;;;;5051655;28;20396;-76
2022/12/19 08:27:41;;;;;;;46.10;26.10;;;5.90;99.90;;;;;;5050850;28;20858;-76
2022/12/19 08:30:07;;;;;;;49.15;26.58;;;5.90;99.90;;;;;;5050722;28;20393;-76
2022/12/19 08:32:33;;;;;;;44.13;25.95;;;6.00;98.60;;;;;;5050733;28;20412;-75
2022/12/19 08:34:58;;;;;;;45.25;25.27;;;6.10;98.10;;;;;;5051448;28;20389;-78
2022/12/19 08:37:24;;;;;;;40.70;24.63;;;6.10;98.90;;;;;;5050381;28;20746;-77
2022/12/19 08:39:49;;;;;;;47.13;26.77;;;6.10;97.70;;;;;;5051761;28;20465;-75
2022/12/19 08:42:15;;;;;;;48.60;26.60;;;6.10;96.80;;;;;;5051819;28;20823;-75
2022/12/19 08:44:40;;;;;;;43.47;25.73;;;6.10;96.40;;;;;;5051207;28;20396;-76
2022/12/19 08:47:06;;;;;;;45.57;24.90;;;6.10;96.80;;;;;;5051369;28;20389;-76
2022/12/19 08:49:31;;;;;;;45.40;25.20;;;6.10;96.30;;;;;;5065721;22;20429;-72
2022/12/19 08:51:57;;;;;;;42.73;24.77;;;6.20;95.50;;;;;;5049466;28;20377;-72
2022/12/19 08:54:23;;;;;;;45.83;24.67;;;6.30;94.00;;;;;;5049957;28;20425;-73
2022/12/19 08:56:48;;;;;;;47.40;26.10;;;6.20;93.40;;;;;;5049945;28;20387;-74
2022/12/19 08:59:15;;;;;;;45.10;25.30;;;6.30;93.80;;;;;;5049310;28;20396;-73
2022/12/19 09:01:40;;;;;;;42.17;24.42;;;6.30;92.80;;;;;;5035576;28;20740;-73
2022/12/19 09:04:06;;;;;;;44.30;25.20;;;6.40;92.40;;;;;;5028635;28;20387;-76
2022/12/19 09:06:31;;;;;;;42.60;25.03;;;6.40;91.30;;;;;;5030782;28;20802;-74
2022/12/19 09:08:57;;;;;;;47.23;26.40;;;6.40;90.80;;;;;;5030860;28;20383;-75
2022/12/19 09:11:22;;;;;;;46.40;25.40;;;6.40;91.60;;;;;;5031268;28;20860;-74
2022/12/19 09:13:50;;;;;;;44.43;24.20;;;6.50;92.70;;;;;;5030129;28;20454;-75
2022/12/19 09:16:19;;;;;;;47.70;25.75;;;6.50;91.30;;;;;;5036107;28;20433;-76
2022/12/19 09:18:49;;;;;;;45.53;26.15;;;6.60;91.10;;;;;;5037830;28;20879;-76
2022/12/19 09:21:16;;;;;;;43.92;26.38;;;6.60;91.10;;;;;;5034217;28;20425;-74
2022/12/19 09:23:42;;;;;;;44.15;25.20;;;6.60;91.10;;;;;;5034291;28;20759;-75
2022/12/19 09:26:10;;;;;;;43.80;24.95;;;6.70;90.30;;;;;;5038737;28;20480;-73
2022/12/19 09:28:38;;;;;;;47.42;25.55;;;6.70;90.50;;;;;;5048191;28;20501;-75
2022/12/19 09:31:07;;;;;;;45.90;25.40;;;6.80;90.60;;;;;;5031919;28;20407;-76
2022/12/19 09:33:34;;;;;;;45.88;25.60;;;6.80;90.30;;;;;;5034266;28;20493;-75
2022/12/19 09:36:01;;;;;;;42.65;24.80;;;6.80;89.70;;;;;;5036812;28;20402;-75
2022/12/19 09:38:29;;;;;;;42.70;24.88;;;6.90;89.70;;;;;;5035262;28;20682;-74
2022/12/19 09:41:22;;;;;;;44.38;25.20;;;6.90;89.40;;;;;;5032900;28;20402;-71
2022/12/19 09:44:14;;;;;;;45.17;25.77;;;7.00;88.50;;;;;;5032887;28;20447;-72
2022/12/19 09:47:01;;;;;;;43.50;23.88;;;7.10;88.10;;;;;;5032473;28;20798;-71
2022/12/19 09:49:38;;;;;;;45.75;25.70;;;7.20;85.40;;;;;;5033073;28;20403;-73
2022/12/19 09:52:09;;;;;;;42.80;24.33;;;7.20;85.90;;;;;;5032372;28;20411;-73
2022/12/19 09:55:04;;;;;;;41.20;23.45;;;7.20;85.60;;;;;;5033732;28;20387;-73
2022/12/19 09:57:51;;;;;;;42.95;24.10;;;7.30;82.90;;;;;;5048160;28;20760;-73
2022/12/19 10:00:19;;;;;;;41.90;23.65;;;7.30;83.00;;;;;;5032689;28;20415;-73
2022/12/19 10:03:06;;;;;;;39.00;23.88;;;7.30;83.10;;;;;;5032148;28;20395;-73
2022/12/19 10:05:45;;;;;;;41.72;25.00;;;7.30;82.60;;;;;;5032137;28;20383;-71
2022/12/19 10:08:32;;;;;;;47.00;25.25;;;7.40;82.70;;;;;;5032483;28;20394;-72
2022/12/19 10:11:07;;;;;;;49.27;26.83;;;7.30;83.90;;;;;;5032012;28;20387;-72
2022/12/19 10:14:03;;;;;;;42.95;24.58;;;7.20;84.80;;;;;;5032291;28;20461;-72
2022/12/19 10:16:51;;;;;;;47.28;25.88;;;7.20;85.20;;;;;;5031237;28;20383;-73
2022/12/19 10:19:31;;;;;;;41.07;23.20;;;7.20;85.70;;;;;;5032735;28;20391;-73
2022/12/19 10:22:24;;;;;;;42.22;24.45;;;7.20;84.00;;;;;;5031587;28;20437;-73
2022/12/19 10:25:27;;;;;;;40.95;24.92;;;7.30;84.70;;;;;;5032193;28;20863;-73
2022/12/19 10:28:15;;;;;;;42.63;24.20;;;7.30;83.00;;;;;;5031053;28;20462;-72
2022/12/19 10:30:49;;;;;;;40.43;23.70;;;7.40;82.50;;;;;;5032151;28;20418;-72
2022/12/19 10:33:24;;;;;;;42.70;23.80;;;7.40;82.50;;;;;;5032050;28;20463;-73
2022/12/19 10:35:57;;;;;;;39.80;23.30;;;7.50;82.10;;;;;;5032098;28;20386;-72
2022/12/19 10:38:35;;;;;;;37.47;22.63;;;7.50;81.70;;;;;;5031881;28;20534;-73
2022/12/19 10:41:23;;;;;;;44.58;23.67;;;7.50;80.80;;;;;;5032271;28;20376;-72
2022/12/19 10:43:52;;;;;;;43.70;22.58;;;7.50;82.50;;;;;;5031922;28;20380;-72
2022/12/19 10:46:27;;;;;;;41.58;22.40;;;7.50;80.10;;;;;;5031622;28;20632;-72
2022/12/19 10:48:52;;;;;;;42.65;23.35;;;7.50;81.00;;;;;;5031682;28;20395;-72
2022/12/19 10:51:25;;;;;;;42.70;22.00;;;7.50;80.70;;;;;;5031534;28;20394;-73
2022/12/19 10:53:59;;;;;;;40.80;23.48;;;7.60;78.90;;;;;;5032079;28;20891;-73
2022/12/19 10:56:27;;;;;;;42.17;23.83;;;7.60;78.20;;;;;;5031926;28;20409;-73
2022/12/19 10:58:56;;;;;;;42.47;24.02;;;7.70;79.40;;;;;;5031677;28;20411;-72
2022/12/19 11:01:33;;;;;;;38.80;22.60;;;7.60;79.30;;;;;;5031171;28;20383;-72
2022/12/19 11:04:21;;;;;;;36.00;21.92;;;7.60;79.70;;;;;;5031382;28;20395;-74
2022/12/19 11:06:59;;;;;;;40.78;23.92;;;7.70;80.10;;;;;;5031514;28;20384;-73
2022/12/19 11:09:29;;;;;;;40.20;23.63;;;7.70;78.40;;;;;;5031186;28;20784;-71
2022/12/19 11:12:10;;;;;;;35.33;21.77;;;7.80;78.80;;;;;;5030667;28;20470;-74
2022/12/19 11:14:39;;;;;;;38.58;21.88;;;7.80;77.80;;;;;;5031088;28;20379;-72
2022/12/19 11:17:05;;;;;;;45.80;22.55;;;7.80;78.40;;;;;;5031725;28;20391;-74
2022/12/19 11:19:38;;;;;;;42.88;21.90;;;7.70;78.60;;;;;;5031562;28;20390;-73
2022/12/19 11:22:06;;;;;;;41.75;23.10;;;7.70;79.60;;;;;;5031047;28;20387;-74
2022/12/19 11:24:40;;;;;;;34.67;20.40;;;7.80;78.40;;;;;;5031440;28;20433;-72
2022/12/19 11:27:41;;;;;;;37.92;23.92;;;7.80;75.60;;;;;;5030975;28;20921;-73
2022/12/19 11:30:25;;;;;;;37.90;22.23;;;7.90;76.30;;;;;;5030837;28;21137;-73
2022/12/19 11:33:26;;;;;;;38.05;21.00;;;8.00;75.40;;;;;;5030151;28;20410;-73
2022/12/19 11:35:54;;;;;;;35.58;20.92;;;8.10;73.50;;;;;;4969876;28;20395;-73
2022/12/19 11:38:36;;;;;;;36.20;21.20;;;8.10;73.20;;;;;;5019264;28;20390;-72
2022/12/19 11:41:13;;;;;;;41.58;22.40;;;8.10;72.40;;;;;;5030316;28;20371;-72
2022/12/19 11:43:52;;;;;;;38.05;21.55;;;8.00;72.20;;;;;;5030736;28;20432;-73
2022/12/19 11:46:20;;;;;;;37.25;20.98;;;8.10;71.80;;;;;;5030519;28;20383;-72
2022/12/19 11:48:53;;;;;;;38.85;21.98;;;8.10;69.90;;;;;;5030049;28;22365;-73
2022/12/19 11:51:44;;;;;;;37.85;20.80;;;8.20;71.30;;;;;;5030841;28;20387;-73
2022/12/19 11:54:35;;;;;;;35.65;20.15;;;8.20;70.70;;;;;;5030440;28;20457;-73
2022/12/19 11:57:01;;;;;;;36.88;22.10;;;8.10;70.30;;;;;;5030122;28;20525;-73
2022/12/19 11:59:30;;;;;;;37.50;21.20;;;8.20;71.20;;;;;;5030585;28;20822;-73
2022/12/19 12:02:27;;;;;;;37.83;21.13;;;8.30;68.90;;;;;;5030108;28;20383;-73
2022/12/19 12:05:20;;;;;;;34.10;20.60;;;8.40;68.70;;;;;;5028966;28;20709;-73
2022/12/19 12:07:54;;;;;;;34.83;20.20;;;8.40;66.90;;;;;;5027461;28;20763;-73
2022/12/19 12:10:20;;;;;;;34.03;19.27;;;8.40;66.40;;;;;;5029908;28;20390;-72
2022/12/19 12:13:13;;;;;;;36.05;20.60;;;8.40;65.50;;;;;;5028999;28;20479;-71
2022/12/19 12:15:56;;;;;;;32.97;20.87;;;8.40;66.20;;;;;;5030882;28;20387;-71
2022/12/19 12:18:24;;;;;;;33.33;20.02;;;8.50;64.80;;;;;;5031542;28;20395;-71
2022/12/19 12:20:52;;;;;;;38.23;22.20;;;8.60;63.70;;;;;;5029756;28;20403;-71
2022/12/19 12:23:27;;;;;;;37.58;22.48;;;8.70;64.70;;;;;;5029788;28;20491;-72
2022/12/19 12:25:59;;;;;;;32.97;20.80;;;8.80;64.40;;;;;;5030692;28;20454;-72
2022/12/19 12:28:51;;;;;;;37.53;21.23;;;8.80;63.20;;;;;;5030700;28;20486;-74
2022/12/19 12:31:53;;;;;;;39.33;22.93;;;8.90;63.00;;;;;;5030298;28;20783;-76
2022/12/19 12:34:37;;;;;;;32.25;20.20;;;9.00;61.30;;;;;;5010927;28;20397;-74
2022/12/19 12:37:38;;;;;;;36.50;21.47;;;9.00;59.40;;;;;;5010615;28;20420;-75
2022/12/19 12:40:03;;;;;;;33.65;19.27;;;9.00;59.70;;;;;;5010589;28;20885;-74
2022/12/19 12:43:04;;;;;;;36.22;21.70;;;9.00;59.80;;;;;;5009980;28;20391;-75
2022/12/19 12:45:35;;;;;;;38.05;21.60;;;8.90;61.00;;;;;;5011117;28;20380;-75
2022/12/19 12:48:01;;;;;;;35.65;21.27;;;9.00;60.80;;;;;;5010298;28;20737;-75
2022/12/19 12:50:27;;;;;;;40.60;22.40;;;9.00;60.80;;;;;;5010401;28;20383;-75
2022/12/19 12:53:00;;;;;;;32.75;19.88;;;8.90;60.30;;;;;;5013729;28;20470;-75
2022/12/19 12:55:29;;;;;;;32.22;19.70;;;8.90;60.80;;;;;;5014838;28;20745;-74
2022/12/19 12:57:55;;;;;;;32.92;18.92;;;8.90;59.40;;;;;;5014043;28;20381;-76
2022/12/19 13:00:20;;;;;;;35.55;21.77;;;8.90;59.50;;;;;;5014078;28;20471;-75
2022/12/19 13:02:51;;;;;;;34.50;20.50;;;8.90;59.80;;;;;;5013417;28;20455;-75